Time;durP1;ratioP1;P1;durP2;ratioP2;P2;SDS_P1;SDS_P2;PMS_P1;PMS_P2;Temp;Humidity;BMP_temperature;BMP_pressure;BME280_temperature;BME280_humidity;BME280_pressure;Samples;Min_cycle;Max_cycle;Signal;HPM_P1;HPM_P2
2021/08/07 00:02:15;;;;;;;5.97;1.33;;;;;;;15.85;100.00;96948.03;5055477;28;20040;-80
2021/08/07 00:04:42;;;;;;;4.75;1.52;;;;;;;15.89;100.00;96948.88;5070878;28;20037;-79
2021/08/07 00:07:09;;;;;;;3.92;1.27;;;;;;;15.92;100.00;96952.81;5074696;28;20086;-81
2021/08/07 00:09:35;;;;;;;6.53;1.45;;;;;;;15.90;100.00;96938.72;5072104;28;20039;-83
2021/08/07 00:12:05;;;;;;;2.90;1.27;;;;;;;15.90;100.00;96939.53;5049457;28;20072;-82
2021/08/07 00:14:32;;;;;;;7.15;1.65;;;;;;;15.84;100.00;96946.47;5057424;28;20104;-81
2021/08/07 00:16:59;;;;;;;4.15;1.42;;;;;;;15.80;100.00;96956.53;5056224;28;20049;-81
2021/08/07 00:19:28;;;;;;;3.55;1.48;;;;;;;15.73;100.00;96952.88;5055718;28;20045;-81
2021/08/07 00:21:54;;;;;;;6.53;1.60;;;;;;;15.71;100.00;96947.81;5053164;28;20067;-82
2021/08/07 00:24:23;;;;;;;4.35;1.20;;;;;;;15.75;100.00;96948.66;5055566;28;20091;-83
2021/08/07 00:26:50;;;;;;;5.40;1.48;;;;;;;15.75;100.00;96954.09;5057719;28;20045;-81
2021/08/07 00:29:17;;;;;;;3.40;1.35;;;;;;;15.71;100.00;96949.75;5054510;28;20044;-80
2021/08/07 00:31:43;;;;;;;5.70;1.75;;;;;;;15.69;100.00;96947.38;5037847;28;20055;-80
2021/08/07 00:34:10;;;;;;;3.22;1.40;;;;;;;15.73;100.00;96961.88;5054446;28;20051;-82
2021/08/07 00:36:37;;;;;;;4.50;1.70;;;;;;;15.72;100.00;96938.44;5055730;28;20478;-80
2021/08/07 00:39:04;;;;;;;6.25;1.30;;;;;;;15.79;100.00;96948.72;5055528;28;20029;-82
2021/08/07 00:41:33;;;;;;;4.90;1.40;;;;;;;15.76;100.00;96930.34;5039074;28;20148;-80
2021/08/07 00:44:00;;;;;;;3.22;1.27;;;;;;;15.82;100.00;96950.72;5059838;28;20049;-83
2021/08/07 00:46:26;;;;;;;3.92;1.55;;;;;;;15.76;100.00;96943.97;5074219;28;20036;-83
2021/08/07 00:48:55;;;;;;;2.88;1.17;;;;;;;15.76;100.00;96949.44;5072068;28;20029;-83
2021/08/07 00:51:22;;;;;;;2.60;1.20;;;;;;;15.74;100.00;96940.84;5070800;28;20045;-78
2021/08/07 00:53:51;;;;;;;7.13;1.50;;;;;;;15.76;100.00;96944.78;5055952;28;20120;-81
2021/08/07 00:56:18;;;;;;;3.03;1.30;;;;;;;15.69;100.00;96944.63;5055304;28;20049;-82
2021/08/07 00:58:44;;;;;;;4.10;1.67;;;;;;;15.63;100.00;96951.56;5071506;28;20041;-80
2021/08/07 01:01:15;;;;;;;3.83;1.50;;;;;;;15.62;100.00;96947.25;5054884;28;20143;-82
2021/08/07 01:03:46;;;;;;;4.50;1.42;;;;;;;15.73;100.00;96952.88;5056237;28;20045;-81
2021/08/07 01:06:46;;;;;;;2.40;1.33;;;;;;;15.73;100.00;96950.16;5054891;28;20041;-81
2021/08/07 01:09:51;;;;;;;4.07;1.30;;;;;;;15.69;100.00;96943.88;5077425;28;20051;-81
2021/08/07 01:12:33;;;;;;;2.22;1.40;;;;;;;15.64;100.00;96942.22;5037268;28;20045;-80
2021/08/07 01:15:02;;;;;;;3.47;1.40;;;;;;;15.78;100.00;96947.13;5054534;28;20051;-79
2021/08/07 01:17:30;;;;;;;4.32;1.30;;;;;;;15.69;100.00;96941.91;5054653;28;20075;-79
2021/08/07 01:20:06;;;;;;;3.38;1.30;;;;;;;15.68;100.00;96956.72;5053847;28;20049;-82
2021/08/07 01:22:42;;;;;;;2.88;1.30;;;;;;;15.59;100.00;96948.75;5054016;28;20036;-81
2021/08/07 01:25:14;;;;;;;3.20;1.38;;;;;;;15.52;100.00;96940.47;5055062;28;20102;-80
2021/08/07 01:27:41;;;;;;;3.17;1.35;;;;;;;15.45;100.00;96945.81;5055635;28;20041;-81
2021/08/07 01:30:11;;;;;;;4.95;1.38;;;;;;;15.43;100.00;96950.78;5053732;28;20037;-80
2021/08/07 01:32:39;;;;;;;3.05;1.60;;;;;;;15.41;100.00;96949.56;5053983;28;20111;-81
2021/08/07 01:35:08;;;;;;;3.83;1.23;;;;;;;15.30;100.00;96941.22;5055777;28;20053;-79
2021/08/07 01:37:35;;;;;;;7.18;1.52;;;;;;;15.25;100.00;96941.50;5054266;28;20048;-79
2021/08/07 01:40:02;;;;;;;3.72;1.50;;;;;;;15.20;100.00;96946.47;5053168;28;20071;-80
2021/08/07 01:42:28;;;;;;;3.97;1.60;;;;;;;15.11;100.00;96938.50;5037607;28;20053;-81
2021/08/07 01:44:55;;;;;;;3.58;1.38;;;;;;;15.07;100.00;96932.22;5053167;28;20049;-77
2021/08/07 01:47:28;;;;;;;5.28;1.48;;;;;;;15.02;100.00;96937.16;5054479;28;20049;-79
2021/08/07 01:50:06;;;;;;;3.33;1.58;;;;;;;14.95;100.00;96940.53;5053410;28;20468;-81
2021/08/07 01:52:41;;;;;;;3.03;1.38;;;;;;;14.90;100.00;96938.91;5052320;28;20079;-79
2021/08/07 01:55:22;;;;;;;3.22;1.23;;;;;;;14.82;100.00;96950.00;5054232;28;20045;-81
2021/08/07 01:58:13;;;;;;;4.28;1.50;;;;;;;14.83;100.00;96944.22;5053591;28;20041;-81
2021/08/07 02:00:41;;;;;;;4.35;1.63;;;;;;;14.85;100.00;96944.63;5051915;28;20044;-79
2021/08/07 02:03:09;;;;;;;4.57;1.60;;;;;;;14.80;100.00;96946.84;5051842;28;20059;-79
2021/08/07 02:05:36;;;;;;;3.75;1.40;;;;;;;14.79;100.00;96947.97;5034759;28;20068;-78
2021/08/07 02:08:04;;;;;;;2.95;1.50;;;;;;;14.74;100.00;96937.38;5052284;28;20045;-81
2021/08/07 02:10:32;;;;;;;2.20;1.50;;;;;;;14.76;100.00;96940.56;5053132;28;20139;-81
2021/08/07 02:13:00;;;;;;;6.35;1.42;;;;;;;14.75;100.00;96938.97;5052022;28;20049;-79
2021/08/07 02:15:29;;;;;;;4.20;1.40;;;;;;;14.82;100.00;96944.56;5068482;28;20049;-81
2021/08/07 02:17:57;;;;;;;2.17;1.42;;;;;;;14.78;100.00;96943.69;5034868;28;20045;-79
2021/08/07 02:20:23;;;;;;;2.38;1.42;;;;;;;14.85;100.00;96941.09;5034209;28;20452;-82
2021/08/07 02:22:54;;;;;;;5.28;1.40;;;;;;;14.88;100.00;96943.91;5051781;28;20052;-81
2021/08/07 02:25:21;;;;;;;5.35;1.25;;;;;;;14.89;100.00;96940.03;5034474;28;20060;-81
2021/08/07 02:27:50;;;;;;;4.28;1.23;;;;;;;14.93;100.00;96934.66;5035528;28;20049;-81
2021/08/07 02:30:18;;;;;;;5.68;1.40;;;;;;;14.91;100.00;96934.25;5035426;28;20080;-80
2021/08/07 02:32:46;;;;;;;4.47;1.42;;;;;;;14.91;100.00;96936.97;5068660;28;20041;-81
2021/08/07 02:35:14;;;;;;;3.17;1.20;;;;;;;14.94;100.00;96937.00;5052833;28;20052;-81
2021/08/07 02:37:41;;;;;;;3.03;1.30;;;;;;;14.88;100.00;96927.56;5035415;28;20045;-80
2021/08/07 02:40:09;;;;;;;3.88;1.30;;;;;;;14.95;100.00;96921.44;5052373;28;20037;-81
2021/08/07 02:42:36;;;;;;;5.82;1.40;;;;;;;14.96;100.00;96933.94;5053254;28;20066;-81
2021/08/07 02:45:06;;;;;;;1.50;0.80;;;;;;;14.92;100.00;96935.78;5051788;28;20049;-81
2021/08/07 02:47:34;;;;;;;4.20;1.63;;;;;;;14.85;100.00;96930.22;5052532;28;20045;-81
2021/08/07 02:50:03;;;;;;;3.30;1.30;;;;;;;14.81;100.00;96938.31;5034974;28;20049;-80
2021/08/07 02:52:32;;;;;;;2.15;1.30;;;;;;;14.78;100.00;96939.03;5052854;28;20048;-83
2021/08/07 02:55:02;;;;;;;2.83;1.40;;;;;;;14.79;100.00;96931.63;5052201;28;20068;-82
2021/08/07 02:57:31;;;;;;;7.10;1.30;;;;;;;14.76;100.00;96930.41;5034896;28;20049;-81
2021/08/07 02:59:58;;;;;;;4.15;1.33;;;;;;;14.74;100.00;96926.47;5051935;28;20037;-81
2021/08/07 03:02:25;;;;;;;5.20;1.60;;;;;;;14.75;100.00;96926.13;5053145;28;20037;-81
2021/08/07 03:04:52;;;;;;;3.80;1.75;;;;;;;14.76;100.00;96924.22;5053898;28;20037;-81
2021/08/07 03:07:18;;;;;;;4.47;1.33;;;;;;;14.76;100.00;96921.47;5052130;28;20081;-81
2021/08/07 03:09:45;;;;;;;2.85;1.42;;;;;;;14.77;100.00;96921.09;5054153;28;20064;-82
2021/08/07 03:12:13;;;;;;;4.70;1.42;;;;;;;14.87;100.00;96930.63;5035092;28;20033;-83
2021/08/07 03:14:39;;;;;;;2.75;1.30;;;;;;;14.88;100.00;96929.50;5048894;28;20056;-82
2021/08/07 03:17:06;;;;;;;4.65;1.67;;;;;;;14.89;100.00;96917.47;5061643;28;20092;-80
2021/08/07 03:19:33;;;;;;;4.90;1.40;;;;;;;14.91;100.00;96929.56;5055262;28;20076;-83
2021/08/07 03:22:00;;;;;;;4.15;1.20;;;;;;;14.89;100.00;96923.66;5051913;28;20051;-80
2021/08/07 03:24:27;;;;;;;2.58;1.20;;;;;;;14.94;100.00;96923.38;5054610;28;20041;-80
2021/08/07 03:26:54;;;;;;;3.88;0.98;;;;;;;14.96;100.00;96915.66;5070077;28;20049;-82
2021/08/07 03:29:23;;;;;;;3.72;1.00;;;;;;;15.02;100.00;96924.31;5071661;28;20103;-81
2021/08/07 03:31:49;;;;;;;2.22;1.23;;;;;;;15.02;100.00;96924.31;5039857;28;20053;-82
2021/08/07 03:34:16;;;;;;;3.28;1.20;;;;;;;15.04;100.00;96911.13;5060266;28;20136;-80
2021/08/07 03:36:43;;;;;;;1.95;1.00;;;;;;;15.14;100.00;96921.44;5062821;28;20033;-81
2021/08/07 03:39:10;;;;;;;1.88;1.10;;;;;;;15.17;100.00;96914.47;5061591;28;20064;-81
2021/08/07 03:41:37;;;;;;;4.40;1.20;;;;;;;15.24;100.00;96928.22;5060996;28;20079;-84
2021/08/07 03:44:06;;;;;;;3.88;1.17;;;;;;;15.11;100.00;96908.53;5062504;28;20044;-81
2021/08/07 03:46:33;;;;;;;1.85;1.05;;;;;;;15.22;100.00;96923.16;5059605;28;20056;-81
2021/08/07 03:48:59;;;;;;;3.25;1.00;;;;;;;15.29;100.00;96925.19;5055143;28;20041;-82
2021/08/07 03:51:26;;;;;;;3.95;1.10;;;;;;;15.29;100.00;96930.66;5037750;28;20083;-81
2021/08/07 03:53:53;;;;;;;4.47;1.08;;;;;;;15.24;100.00;96930.94;5054183;28;20614;-81
2021/08/07 03:56:20;;;;;;;1.60;0.90;;;;;;;15.19;100.00;96928.53;5071515;28;20040;-82
2021/08/07 03:58:46;;;;;;;2.55;1.20;;;;;;;15.21;100.00;96934.41;5054201;28;20049;-79
2021/08/07 04:01:13;;;;;;;2.85;0.95;;;;;;;15.24;100.00;96920.84;5053373;28;20518;-81
2021/08/07 04:03:40;;;;;;;3.85;1.10;;;;;;;15.23;100.00;96921.19;5054585;28;20548;-82
2021/08/07 04:06:25;;;;;;;3.38;1.05;;;;;;;15.26;100.00;96923.19;5054648;28;20049;-79
2021/08/07 04:08:52;;;;;;;2.60;0.90;;;;;;;15.29;100.00;96923.28;5054129;28;20045;-79
2021/08/07 04:11:18;;;;;;;6.38;1.20;;;;;;;15.31;100.00;96923.69;5054342;28;20041;-81
2021/08/07 04:13:45;;;;;;;4.53;1.17;;;;;;;15.27;100.00;96914.66;5053612;28;20053;-83
2021/08/07 04:16:12;;;;;;;4.57;1.00;;;;;;;15.28;100.00;96916.22;5053510;28;20296;-81
2021/08/07 04:18:38;;;;;;;2.88;1.27;;;;;;;15.35;100.00;96919.09;5055568;28;20041;-82
2021/08/07 04:21:05;;;;;;;7.57;1.08;;;;;;;15.31;100.00;96911.97;5053521;28;20045;-81
2021/08/07 04:23:31;;;;;;;4.00;1.17;;;;;;;15.31;100.00;96906.53;5070474;28;20048;-81
2021/08/07 04:25:58;;;;;;;4.20;1.13;;;;;;;15.31;100.00;96901.09;5037389;28;20055;-81
2021/08/07 04:28:25;;;;;;;4.05;1.02;;;;;;;15.29;100.00;96906.91;5055269;28;20084;-82
2021/08/07 04:30:52;;;;;;;3.72;0.95;;;;;;;15.32;100.00;96905.41;5055230;28;20067;-82
2021/08/07 04:33:18;;;;;;;3.33;1.30;;;;;;;15.40;100.00;96916.06;5053878;28;20574;-82
2021/08/07 04:35:48;;;;;;;3.38;0.93;;;;;;;15.36;100.00;96900.78;5034263;28;20052;-81
2021/08/07 04:38:18;;;;;;;3.58;1.00;;;;;;;15.40;100.00;96909.81;5033599;28;20712;-81
2021/08/07 04:40:46;;;;;;;2.88;1.35;;;;;;;15.45;100.00;96902.16;5032455;28;20037;-81
2021/08/07 04:43:13;;;;;;;4.25;1.23;;;;;;;15.51;100.00;96903.41;5016767;28;20060;-80
2021/08/07 04:45:39;;;;;;;1.52;0.90;;;;;;;15.60;100.00;96903.19;5034313;28;20050;-79
2021/08/07 04:48:07;;;;;;;2.67;1.13;;;;;;;15.68;100.00;96904.09;5017804;28;20254;-81
2021/08/07 04:50:35;;;;;;;2.17;1.10;;;;;;;15.69;100.00;96897.47;5020901;28;20048;-80
2021/08/07 04:53:03;;;;;;;3.78;1.05;;;;;;;15.79;100.00;96902.31;5053139;28;20402;-78
2021/08/07 04:55:30;;;;;;;3.30;1.10;;;;;;;15.97;100.00;96915.09;5069874;28;20052;-81
2021/08/07 04:57:57;;;;;;;5.22;0.82;;;;;;;16.10;100.00;96916.44;5054870;28;20095;-81
2021/08/07 05:00:23;;;;;;;1.35;1.00;;;;;;;16.18;100.00;96915.38;5053135;28;20052;-80
2021/08/07 05:02:52;;;;;;;2.53;0.88;;;;;;;16.26;100.00;96923.69;5053264;28;20041;-81
2021/08/07 05:05:22;;;;;;;1.98;0.82;;;;;;;16.31;100.00;96907.00;5053328;28;20064;-81
2021/08/07 05:07:49;;;;;;;3.05;0.90;;;;;;;16.39;100.00;96908.66;5054794;28;20135;-81
2021/08/07 05:10:17;;;;;;;1.35;0.65;;;;;;;16.40;100.00;96910.22;5053347;28;20502;-81
2021/08/07 05:12:44;;;;;;;2.78;0.90;;;;;;;16.39;100.00;96905.94;5037099;28;20076;-82
2021/08/07 05:15:14;;;;;;;4.75;1.13;;;;;;;16.43;100.00;96904.03;5036667;28;20083;-81
2021/08/07 05:17:41;;;;;;;4.18;1.00;;;;;;;16.42;100.00;96910.63;5036055;28;20143;-81
2021/08/07 05:20:08;;;;;;;5.40;1.02;;;;;;;16.42;100.00;96918.81;5052087;28;20041;-81
2021/08/07 05:22:37;;;;;;;5.25;1.08;;;;;;;16.45;100.00;96913.41;5051979;28;20045;-81
2021/08/07 05:25:06;;;;;;;1.70;0.80;;;;;;;16.47;100.00;96916.56;5052333;28;20041;-80
2021/08/07 05:27:33;;;;;;;6.13;0.90;;;;;;;16.48;100.00;96906.44;5062691;28;20051;-81
2021/08/07 05:30:00;;;;;;;2.65;1.10;;;;;;;16.45;100.00;96909.91;5054960;28;20678;-82
2021/08/07 05:32:26;;;;;;;3.88;1.00;;;;;;;16.49;100.00;96905.28;5053365;28;20041;-82
2021/08/07 05:34:53;;;;;;;3.25;1.25;;;;;;;16.57;100.00;96918.69;5054194;28;20045;-81
2021/08/07 05:37:19;;;;;;;3.97;1.00;;;;;;;16.68;100.00;96921.56;5045537;23;20050;-84
2021/08/07 05:39:46;;;;;;;3.65;1.05;;;;;;;16.81;100.00;96915.47;5033996;28;20140;-85
2021/08/07 05:42:13;;;;;;;4.07;1.17;;;;;;;16.97;100.00;96922.69;5035867;28;20041;-86
2021/08/07 05:44:39;;;;;;;2.35;0.80;;;;;;;17.09;100.00;96916.94;5034710;28;20055;-84
2021/08/07 05:47:06;;;;;;;3.55;1.20;;;;;;;17.18;100.00;96925.66;5018247;28;20052;-85
2021/08/07 05:49:32;;;;;;;1.55;0.75;;;;;;;17.29;100.00;96919.13;5017896;28;20037;-85
2021/08/07 05:52:00;;;;;;;1.60;0.75;;;;;;;17.40;100.00;96914.53;5034067;28;20056;-86
2021/08/07 05:54:26;;;;;;;2.88;0.90;;;;;;;17.54;100.00;96919.41;5032759;28;20080;-85
2021/08/07 05:56:53;;;;;;;3.58;0.85;;;;;;;17.66;100.00;96919.13;5049800;23;20055;-87
2021/08/07 05:59:20;;;;;;;3.55;1.05;;;;;;;17.61;100.00;96913.97;5055173;28;20048;-88
2021/08/07 06:01:46;;;;;;;2.65;0.80;;;;;;;17.74;100.00;96934.44;5054797;28;20047;-87
2021/08/07 06:04:13;;;;;;;2.80;1.13;;;;;;;17.63;100.00;96936.28;5055507;28;20067;-84
2021/08/07 06:06:40;;;;;;;1.95;0.73;;;;;;;17.58;100.00;96935.84;5053664;28;20040;-86
2021/08/07 06:09:07;;;;;;;5.78;0.93;;;;;;;17.58;100.00;96925.69;5054635;28;20041;-88
2021/08/07 06:11:36;;;;;;;2.50;1.00;;;;;;;17.55;100.00;96922.94;5038783;28;20060;-82
2021/08/07 06:14:02;;;;;;;3.67;1.00;;;;;;;17.50;100.00;96906.81;5056271;28;20518;-85
2021/08/07 06:16:29;;;;;;;4.25;0.98;;;;;;;17.78;100.00;96929.00;5053829;28;20513;-86
2021/08/07 06:18:56;;;;;;;5.15;0.88;;;;;;;17.95;100.00;96933.81;5068345;28;20075;-78
2021/08/07 06:21:23;;;;;;;3.92;1.08;;;;;;;17.95;100.00;96926.41;5044608;28;20474;-84
2021/08/07 06:23:50;;;;;;;4.97;0.80;;;;;;;18.11;100.00;96928.06;5039653;28;20112;-78
2021/08/07 06:26:17;;;;;;;2.83;0.95;;;;;;;18.25;100.00;96928.16;5042882;28;20095;-82
2021/08/07 06:28:43;;;;;;;2.10;1.00;;;;;;;18.22;100.00;96929.69;5038801;28;20076;-86
2021/08/07 06:31:10;;;;;;;3.13;0.82;;;;;;;18.12;100.00;96918.69;5036067;28;20100;-85
2021/08/07 06:33:37;;;;;;;2.53;0.80;;;;;;;18.14;100.00;96921.84;5041668;28;20048;-85
2021/08/07 06:36:04;;;;;;;3.35;1.00;;;;;;;18.29;100.00;96932.50;5050982;28;20449;-84
2021/08/07 06:38:30;;;;;;;2.72;0.75;;;;;;;18.30;100.00;96941.53;5033252;28;20033;-84
2021/08/07 06:40:57;;;;;;;3.70;0.70;;;;;;;18.38;100.00;96943.13;5033797;28;20426;-82
2021/08/07 06:43:23;;;;;;;2.70;0.80;;;;;;;18.36;100.00;96929.03;5047942;28;20091;-84
2021/08/07 06:45:50;;;;;;;3.97;0.70;;;;;;;18.45;100.00;96949.44;5033294;28;20458;-85
2021/08/07 06:48:17;;;;;;;1.45;0.70;;;;;;;18.49;100.00;96944.00;5035849;28;20113;-85
2021/08/07 06:50:44;;;;;;;2.67;0.82;;;;;;;18.51;100.00;96947.16;5047596;28;20510;-85
2021/08/07 06:53:11;;;;;;;3.38;0.80;;;;;;;18.65;100.00;96945.28;5031943;28;20092;-84
2021/08/07 06:55:37;;;;;;;1.23;0.70;;;;;;;18.53;100.00;96947.56;5036589;28;20101;-83
2021/08/07 06:58:04;;;;;;;2.85;0.80;;;;;;;18.63;100.00;96944.88;5032174;28;20502;-86
2021/08/07 07:00:31;;;;;;;4.13;1.27;;;;;;;18.68;100.00;96947.25;5031805;28;20030;-83
2021/08/07 07:02:57;;;;;;;2.45;0.98;;;;;;;18.74;100.00;96941.41;5032571;28;20049;-82
2021/08/07 07:05:29;;;;;;;3.42;0.82;;;;;;;18.80;100.00;96950.81;5048848;28;20052;-86
2021/08/07 07:07:56;;;;;;;2.80;0.82;;;;;;;18.98;100.00;96951.69;5036258;28;20414;-81
2021/08/07 07:10:22;;;;;;;2.42;0.70;;;;;;;19.04;100.00;96945.47;5037001;28;20487;-83
2021/08/07 07:12:49;;;;;;;4.50;1.00;;;;;;;19.15;100.00;96942.75;5051041;28;20132;-84
2021/08/07 07:15:17;;;;;;;3.28;0.80;;;;;;;19.17;100.00;96946.69;5037167;28;20052;-83
2021/08/07 07:17:44;;;;;;;3.92;0.82;;;;;;;19.22;100.00;96942.78;5055264;28;20056;-85
2021/08/07 07:20:11;;;;;;;1.60;0.80;;;;;;;19.33;100.00;96938.06;5049808;28;20042;-84
2021/08/07 07:22:38;;;;;;;3.70;0.85;;;;;;;19.58;100.00;96940.91;5065923;28;20056;-85
2021/08/07 07:25:09;;;;;;;1.60;0.65;;;;;;;19.48;100.00;96911.50;5035891;28;20107;-84
2021/08/07 07:27:37;;;;;;;2.40;0.68;;;;;;;19.70;100.00;96944.06;5077220;28;20050;-85
2021/08/07 07:30:06;;;;;;;1.77;0.57;;;;;;;19.94;100.00;96944.47;5044843;28;20041;-86
2021/08/07 07:32:35;;;;;;;4.93;0.80;;;;;;;20.04;100.00;96927.19;5059590;28;20049;-83
2021/08/07 07:35:04;;;;;;;0.85;0.52;;;;;;;20.18;100.00;96933.47;5063092;28;20514;-85
2021/08/07 07:37:31;;;;;;;0.95;0.57;;;;;;;20.14;100.00;96918.94;5059143;28;20635;-84
2021/08/07 07:39:58;;;;;;;1.75;0.60;;;;;;;20.27;100.00;96935.84;5057866;28;20056;-83
2021/08/07 07:42:25;;;;;;;1.70;0.60;;;;;;;20.52;100.00;96942.06;5058743;28;20044;-85
2021/08/07 07:44:53;;;;;;;2.45;0.77;;;;;;;20.69;100.00;96937.72;5040606;28;20049;-87
2021/08/07 07:47:20;;;;;;;2.35;0.60;;;;;;;20.57;100.00;96938.16;5039572;28;20087;-81
2021/08/07 07:49:49;;;;;;;1.10;0.55;;;;;;;20.55;100.00;96933.03;5057014;28;20048;-84
2021/08/07 07:52:16;;;;;;;2.97;0.80;;;;;;;20.48;100.00;96939.34;5058790;28;20203;-85
2021/08/07 07:54:51;;;;;;;1.70;0.50;;;;;;;20.44;100.00;96935.81;5056991;28;20528;-83
2021/08/07 07:57:20;;;;;;;2.75;0.60;;;;;;;20.38;100.00;96929.16;5055962;28;20071;-83
2021/08/07 07:59:47;;;;;;;1.38;0.60;;;;;;;20.48;100.00;96922.84;5058272;28;20049;-83
2021/08/07 08:02:14;;;;;;;2.33;0.70;;;;;;;20.65;100.00;96923.97;5058965;28;20512;-84
2021/08/07 08:04:41;;;;;;;2.80;0.80;;;;;;;20.70;100.00;96928.31;5057497;28;20115;-84
2021/08/07 08:07:08;;;;;;;1.92;0.57;;;;;;;20.94;100.00;96930.94;5057282;28;20045;-83
2021/08/07 08:09:34;;;;;;;3.38;0.77;;;;;;;20.93;100.00;96934.13;5055725;28;20049;-84
2021/08/07 08:12:01;;;;;;;3.17;0.60;;;;;;;20.88;100.00;96940.78;5037813;28;20152;-85
2021/08/07 08:14:31;;;;;;;1.42;0.65;;;;;;;21.13;100.00;96924.22;5055951;28;20041;-85
2021/08/07 08:17:02;;;;;;;1.50;0.57;;;;;;;20.92;100.00;96919.56;5056935;28;20033;-83
2021/08/07 08:19:33;;;;;;;2.33;0.93;;;;;;;20.93;100.00;96914.84;5057967;28;20041;-83
2021/08/07 08:22:02;;;;;;;1.27;0.70;;;;;;;20.90;100.00;96910.94;5060000;28;20045;-86
2021/08/07 08:24:33;;;;;;;2.67;0.70;;;;;;;21.25;100.00;96920.22;5056149;28;20521;-87
2021/08/07 08:27:01;;;;;;;1.55;0.47;;;;;;;21.37;100.00;96934.31;5055946;28;20537;-85
2021/08/07 08:29:27;;;;;;;1.38;0.50;;;;;;;21.48;100.00;96917.72;5056919;28;20036;-84
2021/08/07 08:31:54;;;;;;;4.60;0.60;;;;;;;21.50;100.00;96938.16;5055089;28;20650;-84
2021/08/07 08:34:25;;;;;;;1.58;0.60;;;;;;;21.47;100.00;96935.44;5055764;28;20045;-81
2021/08/07 08:36:52;;;;;;;3.90;0.60;;;;;;;21.44;100.00;96936.25;5038238;28;20064;-84
2021/08/07 08:39:18;;;;;;;3.00;0.50;;;;;;;21.33;100.00;96935.50;5055768;28;20044;-84
2021/08/07 08:41:45;;;;;;;2.83;0.63;;;;;;;21.75;100.00;96940.75;5052403;28;20521;-85
2021/08/07 08:44:12;;;;;;;1.58;0.50;;;;;;;21.79;100.00;96930.50;5053840;28;20049;-84
2021/08/07 08:46:41;;;;;;;2.30;0.60;;;;;;;21.83;100.00;96925.75;5053553;28;20049;-82
2021/08/07 08:49:08;;;;;;;1.13;0.60;;;;;;;21.64;100.00;96923.50;5053210;28;20067;-80
2021/08/07 08:51:40;;;;;;;3.15;0.75;;;;;;;21.88;100.00;96922.59;5038476;28;20041;-85
2021/08/07 08:54:07;;;;;;;2.72;0.82;;;;;;;22.00;100.00;96902.00;5054572;28;20049;-83
2021/08/07 08:56:35;;;;;;;1.25;0.47;;;;;;;22.18;100.00;96922.72;5058303;28;20065;-87
2021/08/07 08:59:03;;;;;;;3.95;0.70;;;;;;;22.08;100.00;96906.28;5058859;28;20044;-88
2021/08/07 09:01:32;;;;;;;2.97;0.68;;;;;;;22.14;100.00;96910.91;5055210;28;20143;-86
2021/08/07 09:04:13;;;;;;;3.15;0.80;;;;;;;22.14;100.00;96901.88;5054883;28;20087;-85
2021/08/07 09:06:54;;;;;;;1.90;0.50;;;;;;;22.56;100.00;96895.13;5039148;28;20049;-87
2021/08/07 09:09:44;;;;;;;1.15;0.45;;;;;;;22.86;100.00;96912.56;5054297;28;20067;-84
2021/08/07 09:13:00;;;;;;;2.38;0.82;;;;;;;22.72;100.00;96898.16;5055135;28;20132;-84
2021/08/07 09:15:37;;;;;;;2.15;0.60;;;;;;;22.76;100.00;96907.19;5052261;28;20079;-87
2021/08/07 09:18:10;;;;;;;1.42;0.57;;;;;;;23.17;100.00;96899.56;5053757;28;20045;-84
2021/08/07 09:20:38;;;;;;;3.60;0.73;;;;;;;23.35;100.00;96902.88;5053899;28;20281;-83
2021/08/07 09:23:06;;;;;;;1.27;0.70;;;;;;;23.32;100.00;96903.69;5055738;28;20049;-83
2021/08/07 09:25:40;;;;;;;2.30;0.57;;;;;;;23.32;100.00;96894.63;5054910;28;20405;-87
2021/08/07 09:28:08;;;;;;;1.60;0.63;;;;;;;23.63;100.00;96881.56;5053141;28;20106;-83
2021/08/07 09:30:40;;;;;;;3.63;0.70;;;;;;;23.17;100.00;96884.97;5052728;28;20098;-84
2021/08/07 09:33:19;;;;;;;2.15;0.70;;;;;;;23.41;100.00;96895.69;5053253;28;20064;-85
2021/08/07 09:35:50;;;;;;;3.40;0.82;;;;;;;23.47;100.00;96871.13;5038367;28;20037;-85
2021/08/07 09:38:22;;;;;;;2.65;0.80;;;;;;;24.05;100.00;96886.41;5036393;28;20045;-79
2021/08/07 09:41:04;;;;;;;2.33;0.63;;;;;;;24.13;100.00;96883.09;5053048;28;20464;-85
2021/08/07 09:43:35;;;;;;;1.77;0.57;;;;;;;23.55;100.00;96884.44;5054092;28;20055;-86
2021/08/07 09:46:11;;;;;;;1.70;0.55;;;;;;;23.80;100.00;96886.81;5038247;28;20055;-82
2021/08/07 09:48:48;;;;;;;3.20;0.93;;;;;;;24.26;100.00;96886.03;5053926;28;20102;-85
2021/08/07 09:51:23;;;;;;;2.42;0.90;;;;;;;24.20;100.00;96879.44;5054824;28;20116;-85
2021/08/07 09:54:18;;;;;;;3.25;0.75;;;;;;;24.40;100.00;96883.03;5053510;28;20049;-85
2021/08/07 09:56:58;;;;;;;1.48;0.70;;;;;;;24.56;100.00;96882.34;5053770;28;20049;-84
2021/08/07 09:59:26;;;;;;;2.47;0.70;;;;;;;24.91;89.18;96869.78;5054006;28;20036;-84
2021/08/07 10:01:54;;;;;;;1.70;0.70;;;;;;;25.32;86.01;96861.75;5052864;28;20037;-83
2021/08/07 10:04:21;;;;;;;1.50;0.70;;;;;;;25.58;79.68;96868.31;5053133;28;20072;-83
2021/08/07 10:07:11;;;;;;;2.13;0.52;;;;;;;25.51;83.11;96838.78;5062690;28;20544;-84
2021/08/07 10:09:47;;;;;;;1.90;0.80;;;;;;;25.55;76.25;96861.66;5070792;28;20044;-90
2021/08/07 10:12:32;;;;;;;3.90;0.85;;;;;;;26.01;75.52;96861.31;5061288;28;20132;-88
2021/08/07 10:14:59;;;;;;;1.92;0.80;;;;;;;26.59;77.35;96830.84;5038573;28;20045;-84
2021/08/07 10:17:26;;;;;;;2.03;0.70;;;;;;;27.40;73.37;96853.50;5060587;28;20112;-86
2021/08/07 10:19:53;;;;;;;1.77;0.88;;;;;;;26.36;63.64;96856.09;5057764;28;20041;-85
2021/08/07 10:22:20;;;;;;;2.05;0.80;;;;;;;25.15;76.66;96849.09;5055406;28;20510;-85
2021/08/07 10:24:48;;;;;;;2.20;0.80;;;;;;;24.76;75.53;96847.91;5053951;28;20041;-84
2021/08/07 10:27:18;;;;;;;3.17;0.90;;;;;;;25.71;76.02;96849.78;5054014;28;20051;-86
2021/08/07 10:30:11;;;;;;;5.43;0.80;;;;;;;26.85;59.84;96851.94;5052436;28;20047;-87
2021/08/07 10:32:40;;;;;;;1.30;0.63;;;;;;;27.70;56.36;96852.16;5037258;28;20382;-84
2021/08/07 10:35:08;;;;;;;2.10;0.82;;;;;;;26.65;55.88;96840.22;5054905;28;20044;-85
2021/08/07 10:37:36;;;;;;;2.00;0.80;;;;;;;26.90;59.26;96840.28;5054617;28;20049;-84
2021/08/07 10:40:04;;;;;;;5.55;1.00;;;;;;;27.39;55.70;96838.03;5052481;28;20052;-85
2021/08/07 10:42:32;;;;;;;3.53;0.90;;;;;;;27.74;55.01;96838.94;5052939;28;20417;-85
2021/08/07 10:44:59;;;;;;;3.80;0.85;;;;;;;26.45;59.76;96839.59;5051946;28;20049;-84
2021/08/07 10:47:43;;;;;;;2.28;0.70;;;;;;;25.77;61.62;96832.22;5053752;28;20048;-86
2021/08/07 10:50:25;;;;;;;3.45;0.80;;;;;;;25.49;71.73;96834.88;5055580;28;20449;-87
2021/08/07 10:53:05;;;;;;;3.28;0.75;;;;;;;25.31;73.92;96835.28;5071769;28;20084;-87
2021/08/07 10:55:43;;;;;;;1.70;0.70;;;;;;;25.36;86.58;96838.31;5074385;28;20100;-81
2021/08/07 10:58:35;;;;;;;2.00;0.88;;;;;;;25.59;75.94;96839.41;5072279;28;20040;-84
2021/08/07 11:01:22;;;;;;;2.17;0.80;;;;;;;25.28;70.73;96833.38;5053030;28;20041;-89
2021/08/07 11:04:01;;;;;;;3.17;0.90;;;;;;;24.96;75.51;96841.63;5053814;28;20045;-85
2021/08/07 11:06:43;;;;;;;2.67;0.70;;;;;;;25.50;76.09;96842.75;5053921;28;20045;-87
2021/08/07 11:09:22;;;;;;;4.10;0.90;;;;;;;26.66;59.80;96824.34;5053707;28;20041;-87
2021/08/07 11:11:49;;;;;;;1.98;0.70;;;;;;;28.46;53.54;96824.94;5053024;28;20041;-83
2021/08/07 11:14:28;;;;;;;3.60;0.98;;;;;;;28.43;50.15;96832.19;5037254;28;20191;-81
2021/08/07 11:17:04;;;;;;;2.88;1.00;;;;;;;29.44;48.76;96812.09;5053302;28;20037;-86
2021/08/07 11:20:10;;;;;;;4.13;0.88;;;;;;;29.64;44.73;96806.88;5037395;28;20049;-84
2021/08/07 11:22:37;;;;;;;2.03;0.90;;;;;;;31.39;43.34;96812.75;5035569;28;20095;-84
2021/08/07 11:25:05;;;;;;;2.75;0.90;;;;;;;31.92;40.49;96804.59;5049777;28;20506;-85
2021/08/07 11:27:55;;;;;;;2.67;1.10;;;;;;;32.00;40.94;96803.00;5033473;28;20139;-85
2021/08/07 11:30:26;;;;;;;1.50;0.77;;;;;;;29.84;40.32;96800.13;5049345;28;20049;-87
2021/08/07 11:32:55;;;;;;;5.57;1.02;;;;;;;30.11;43.16;96791.81;5049593;28;20048;-87
2021/08/07 11:35:50;;;;;;;6.57;1.00;;;;;;;29.78;43.10;96799.19;5054557;28;20513;-86
2021/08/07 11:38:27;;;;;;;1.70;0.80;;;;;;;29.44;43.96;96795.38;5069238;23;20072;-83
2021/08/07 11:40:58;;;;;;;1.77;0.80;;;;;;;28.90;47.46;96800.66;5052443;28;20061;-82